sensor_id;sensor_type;location;lat;lon;timestamp;pressure;altitude;pressure_sealevel;temperature;humidity
31044;BME280;17710;52.520;13.352;2022-10-23T00:01:35;101325.03;;;18.45;63.94
31044;BME280;17710;52.520;13.352;2022-10-23T00:04:04;101327.97;;;18.11;65.06
31044;BME280;17710;52.520;13.352;2022-10-23T00:06:33;101334.97;;;18.43;63.72
31044;BME280;17710;52.520;13.352;2022-10-23T00:09:00;101343.38;;;18.37;64.07
31044;BME280;17710;52.520;13.352;2022-10-23T00:11:28;101331.28;;;18.30;64.48
31044;BME280;17710;52.520;13.352;2022-10-23T00:13:57;101329.56;;;18.29;64.61
31044;BME280;17710;52.520;13.352;2022-10-23T00:16:24;101340.63;;;18.23;64.78
31044;BME280;17710;52.520;13.352;2022-10-23T00:18:50;101346.41;;;18.15;64.68
31044;BME280;17710;52.520;13.352;2022-10-23T00:21:17;101346.84;;;18.23;64.57
31044;BME280;17710;52.520;13.352;2022-10-23T00:23:45;101348.09;;;18.32;64.42
31044;BME280;17710;52.520;13.352;2022-10-23T00:26:12;101350.47;;;18.07;64.96
31044;BME280;17710;52.520;13.352;2022-10-23T00:28:40;101354.59;;;18.12;64.48
31044;BME280;17710;52.520;13.352;2022-10-23T00:31:07;101360.09;;;18.25;64.33
31044;BME280;17710;52.520;13.352;2022-10-23T00:33:33;101353.91;;;18.09;64.96
31044;BME280;17710;52.520;13.352;2022-10-23T00:36:00;101356.88;;;18.04;65.13
31044;BME280;17710;52.520;13.352;2022-10-23T00:38:28;101352.34;;;18.36;63.91
31044;BME280;17710;52.520;13.352;2022-10-23T00:40:56;101354.25;;;18.18;64.43
31044;BME280;17710;52.520;13.352;2022-10-23T00:43:25;101357.25;;;18.28;64.02
31044;BME280;17710;52.520;13.352;2022-10-23T00:45:51;101365.72;;;18.36;63.54
31044;BME280;17710;52.520;13.352;2022-10-23T00:48:18;101356.25;;;18.45;63.16
31044;BME280;17710;52.520;13.352;2022-10-23T00:50:46;101359.16;;;18.26;63.86
31044;BME280;17710;52.520;13.352;2022-10-23T00:53:14;101363.97;;;18.51;63.06
31044;BME280;17710;52.520;13.352;2022-10-23T00:55:43;101356.47;;;18.42;63.34
31044;BME280;17710;52.520;13.352;2022-10-23T00:58:12;101359.91;;;18.59;62.62
31044;BME280;17710;52.520;13.352;2022-10-23T01:00:43;101361.09;;;18.69;62.35
31044;BME280;17710;52.520;13.352;2022-10-23T01:03:11;101364.56;;;18.40;62.75
31044;BME280;17710;52.520;13.352;2022-10-23T01:05:44;101362.91;;;18.69;62.02
31044;BME280;17710;52.520;13.352;2022-10-23T01:08:17;101363.72;;;18.55;62.40
31044;BME280;17710;52.520;13.352;2022-10-23T01:10:48;101363.28;;;18.63;61.84
31044;BME280;17710;52.520;13.352;2022-10-23T01:13:22;101363.34;;;18.61;62.00
31044;BME280;17710;52.520;13.352;2022-10-23T01:15:58;101363.84;;;18.52;61.92
31044;BME280;17710;52.520;13.352;2022-10-23T01:18:34;101352.84;;;18.73;61.24
31044;BME280;17710;52.520;13.352;2022-10-23T01:21:08;101359.56;;;18.50;61.97
31044;BME280;17710;52.520;13.352;2022-10-23T01:23:47;101358.38;;;18.55;61.91
31044;BME280;17710;52.520;13.352;2022-10-23T01:26:49;101362.56;;;18.59;61.85
31044;BME280;17710;52.520;13.352;2022-10-23T01:29:20;101358.44;;;18.38;62.42
31044;BME280;17710;52.520;13.352;2022-10-23T01:31:54;101365.78;;;18.50;62.06
31044;BME280;17710;52.520;13.352;2022-10-23T01:34:28;101365.84;;;18.49;61.97
31044;BME280;17710;52.520;13.352;2022-10-23T01:36:56;101363.41;;;18.30;62.96
31044;BME280;17710;52.520;13.352;2022-10-23T01:39:27;101364.16;;;18.32;62.47
31044;BME280;17710;52.520;13.352;2022-10-23T01:42:00;101364.06;;;18.33;62.67
31044;BME280;17710;52.520;13.352;2022-10-23T01:44:34;101371.28;;;18.47;62.03
31044;BME280;17710;52.520;13.352;2022-10-23T01:47:03;101371.81;;;18.38;62.48
31044;BME280;17710;52.520;13.352;2022-10-23T01:49:32;101375.94;;;18.59;61.77
31044;BME280;17710;52.520;13.352;2022-10-23T01:52:00;101376.50;;;18.35;62.34
31044;BME280;17710;52.520;13.352;2022-10-23T01:54:30;101373.81;;;18.50;61.75
31044;BME280;17710;52.520;13.352;2022-10-23T01:56:58;101363.25;;;18.47;61.88
31044;BME280;17710;52.520;13.352;2022-10-23T01:59:29;101366.16;;;18.28;62.39
31044;BME280;17710;52.520;13.352;2022-10-23T02:02:00;101367.72;;;18.17;62.97
31044;BME280;17710;52.520;13.352;2022-10-23T02:04:30;101370.28;;;18.34;62.01
31044;BME280;17710;52.520;13.352;2022-10-23T02:06:59;101361.91;;;18.40;61.87
31044;BME280;17710;52.520;13.352;2022-10-23T02:09:25;101354.06;;;18.21;62.26
31044;BME280;17710;52.520;13.352;2022-10-23T02:11:56;101363.03;;;18.36;62.02
31044;BME280;17710;52.520;13.352;2022-10-23T02:14:32;101355.81;;;18.22;62.71
31044;BME280;17710;52.520;13.352;2022-10-23T02:17:08;101353.19;;;18.37;61.90
31044;BME280;17710;52.520;13.352;2022-10-23T02:19:44;101360.41;;;18.50;61.67
31044;BME280;17710;52.520;13.352;2022-10-23T02:22:15;101358.63;;;18.35;61.70
31044;BME280;17710;52.520;13.352;2022-10-23T02:24:48;101356.59;;;18.54;61.20
31044;BME280;17710;52.520;13.352;2022-10-23T02:27:20;101360.47;;;18.64;60.88
31044;BME280;17710;52.520;13.352;2022-10-23T02:29:51;101354.53;;;18.59;61.02
31044;BME280;17710;52.520;13.352;2022-10-23T02:32:21;101357.47;;;18.55;61.00
31044;BME280;17710;52.520;13.352;2022-10-23T02:34:49;101351.78;;;18.45;61.31
31044;BME280;17710;52.520;13.352;2022-10-23T02:37:15;101355.31;;;18.61;60.45
31044;BME280;17710;52.520;13.352;2022-10-23T02:39:42;101347.94;;;18.19;61.93
31044;BME280;17710;52.520;13.352;2022-10-23T02:42:11;101349.31;;;18.26;61.77
31044;BME280;17710;52.520;13.352;2022-10-23T02:44:45;101353.91;;;18.09;61.98
31044;BME280;17710;52.520;13.352;2022-10-23T02:47:24;101350.38;;;18.24;61.93
31044;BME280;17710;52.520;13.352;2022-10-23T02:50:00;101347.94;;;18.35;61.62
31044;BME280;17710;52.520;13.352;2022-10-23T02:52:34;101342.22;;;18.41;60.94
31044;BME280;17710;52.520;13.352;2022-10-23T02:55:16;101348.72;;;18.21;61.66
31044;BME280;17710;52.520;13.352;2022-10-23T02:57:48;101354.94;;;18.06;61.74
31044;BME280;17710;52.520;13.352;2022-10-23T03:00:18;101359.44;;;18.06;62.15
31044;BME280;17710;52.520;13.352;2022-10-23T03:02:52;101354.44;;;18.31;61.39
31044;BME280;17710;52.520;13.352;2022-10-23T03:05:22;101356.88;;;18.04;62.20
31044;BME280;17710;52.520;13.352;2022-10-23T03:07:49;101353.91;;;18.09;62.13
31044;BME280;17710;52.520;13.352;2022-10-23T03:10:15;101353.59;;;17.83;62.43
31044;BME280;17710;52.520;13.352;2022-10-23T03:12:42;101348.50;;;17.95;62.15
31044;BME280;17710;52.520;13.352;2022-10-23T03:15:10;101351.34;;;17.91;62.49
31044;BME280;17710;52.520;13.352;2022-10-23T03:17:37;101354.84;;;17.92;62.66
31044;BME280;17710;52.520;13.352;2022-10-23T03:20:05;101349.28;;;17.97;62.18
31044;BME280;17710;52.520;13.352;2022-10-23T03:22:33;101350.13;;;17.81;62.41
31044;BME280;17710;52.520;13.352;2022-10-23T03:24:59;101348.91;;;18.03;61.84
31044;BME280;17710;52.520;13.352;2022-10-23T03:27:25;101347.53;;;17.96;62.37
31044;BME280;17710;52.520;13.352;2022-10-23T03:29:52;101352.53;;;18.02;62.36
31044;BME280;17710;52.520;13.352;2022-10-23T03:32:18;101351.44;;;17.90;62.69
31044;BME280;17710;52.520;13.352;2022-10-23T03:34:44;101351.16;;;17.95;62.29
31044;BME280;17710;52.520;13.352;2022-10-23T03:37:12;101355.28;;;18.00;62.24
31044;BME280;17710;52.520;13.352;2022-10-23T03:39:39;101355.13;;;18.03;61.83
31044;BME280;17710;52.520;13.352;2022-10-23T03:42:05;101359.53;;;17.88;62.15
31044;BME280;17710;52.520;13.352;2022-10-23T03:44:32;101351.59;;;18.03;61.84
31044;BME280;17710;52.520;13.352;2022-10-23T03:46:58;101364.03;;;18.04;61.93
31044;BME280;17710;52.520;13.352;2022-10-23T03:49:25;101367.28;;;17.77;62.48
31044;BME280;17710;52.520;13.352;2022-10-23T03:51:51;101360.91;;;17.80;62.44
31044;BME280;17710;52.520;13.352;2022-10-23T03:54:20;101369.72;;;17.49;63.11
31044;BME280;17710;52.520;13.352;2022-10-23T03:56:47;101360.47;;;17.87;62.11
31044;BME280;17710;52.520;13.352;2022-10-23T03:59:13;101366.38;;;17.45;63.11
31044;BME280;17710;52.520;13.352;2022-10-23T04:01:40;101363.47;;;17.33;63.42
31044;BME280;17710;52.520;13.352;2022-10-23T04:04:06;101371.16;;;17.39;63.39
31044;BME280;17710;52.520;13.352;2022-10-23T04:06:33;101368.13;;;17.29;63.76
31044;BME280;17710;52.520;13.352;2022-10-23T04:08:59;101362.97;;;17.42;63.42
31044;BME280;17710;52.520;13.352;2022-10-23T04:11:27;101370.38;;;17.37;63.57
31044;BME280;17710;52.520;13.352;2022-10-23T04:13:54;101369.13;;;17.27;63.59
31044;BME280;17710;52.520;13.352;2022-10-23T04:16:20;101370.19;;;17.07;63.67
31044;BME280;17710;52.520;13.352;2022-10-23T04:18:47;101365.63;;;17.09;63.62
31044;BME280;17710;52.520;13.352;2022-10-23T04:21:13;101359.06;;;16.99;63.87
31044;BME280;17710;52.520;13.352;2022-10-23T04:23:39;101356.75;;;17.08;63.38
31044;BME280;17710;52.520;13.352;2022-10-23T04:26:06;101367.22;;;16.96;63.70
31044;BME280;17710;52.520;13.352;2022-10-23T04:28:34;101362.44;;;16.68;64.32
31044;BME280;17710;52.520;13.352;2022-10-23T04:31:00;101352.47;;;17.06;63.55
31044;BME280;17710;52.520;13.352;2022-10-23T04:33:26;101350.81;;;17.03;63.64
31044;BME280;17710;52.520;13.352;2022-10-23T04:35:53;101349.69;;;17.07;63.25
31044;BME280;17710;52.520;13.352;2022-10-23T04:38:19;101353.22;;;17.08;63.40
31044;BME280;17710;52.520;13.352;2022-10-23T04:40:45;101348.41;;;17.14;63.09
31044;BME280;17710;52.520;13.352;2022-10-23T04:43:12;101350.34;;;17.28;62.58
31044;BME280;17710;52.520;13.352;2022-10-23T04:45:39;101356.28;;;17.00;63.32
31044;BME280;17710;52.520;13.352;2022-10-23T04:48:06;101366.44;;;16.77;63.49
31044;BME280;17710;52.520;13.352;2022-10-23T04:50:32;101360.94;;;16.62;63.66
31044;BME280;17710;52.520;13.352;2022-10-23T04:52:58;101361.78;;;16.46;64.51
31044;BME280;17710;52.520;13.352;2022-10-23T04:55:25;101355.66;;;16.44;64.63
31044;BME280;17710;52.520;13.352;2022-10-23T04:57:51;101364.69;;;16.58;63.82
31044;BME280;17710;52.520;13.352;2022-10-23T05:00:18;101369.44;;;16.34;64.57
31044;BME280;17710;52.520;13.352;2022-10-23T05:02:46;101372.81;;;16.38;64.37
31044;BME280;17710;52.520;13.352;2022-10-23T05:05:13;101367.81;;;16.49;64.32
31044;BME280;17710;52.520;13.352;2022-10-23T05:07:39;101358.72;;;16.53;64.33
31044;BME280;17710;52.520;13.352;2022-10-23T05:10:06;101358.31;;;16.44;64.39
31044;BME280;17710;52.520;13.352;2022-10-23T05:12:33;101357.38;;;16.45;63.78
31044;BME280;17710;52.520;13.352;2022-10-23T05:14:59;101365.63;;;16.21;64.57
31044;BME280;17710;52.520;13.352;2022-10-23T05:17:28;101357.81;;;16.18;64.71
31044;BME280;17710;52.520;13.352;2022-10-23T05:19:58;101355.09;;;16.37;64.56
31044;BME280;17710;52.520;13.352;2022-10-23T05:22:29;101355.88;;;16.56;64.00
31044;BME280;17710;52.520;13.352;2022-10-23T05:24:57;101357.75;;;16.37;64.28
31044;BME280;17710;52.520;13.352;2022-10-23T05:27:26;101364.34;;;16.30;64.29
31044;BME280;17710;52.520;13.352;2022-10-23T05:29:53;101361.53;;;16.50;64.23
31044;BME280;17710;52.520;13.352;2022-10-23T05:32:19;101362.22;;;16.37;64.95
31044;BME280;17710;52.520;13.352;2022-10-23T05:34:46;101365.69;;;16.56;64.66
31044;BME280;17710;52.520;13.352;2022-10-23T05:37:15;101367.69;;;16.69;63.74
31044;BME280;17710;52.520;13.352;2022-10-23T05:39:42;101366.94;;;16.49;64.49
31044;BME280;17710;52.520;13.352;2022-10-23T05:42:08;101375.44;;;16.57;64.44
31044;BME280;17710;52.520;13.352;2022-10-23T05:44:35;101365.81;;;16.89;63.37
31044;BME280;17710;52.520;13.352;2022-10-23T05:47:01;101353.72;;;16.99;63.17
31044;BME280;17710;52.520;13.352;2022-10-23T05:49:27;101369.09;;;16.94;63.07
31044;BME280;17710;52.520;13.352;2022-10-23T05:51:54;101376.19;;;16.60;63.92
31044;BME280;17710;52.520;13.352;2022-10-23T05:54:21;101374.34;;;16.61;63.86
31044;BME280;17710;52.520;13.352;2022-10-23T05:56:48;101380.09;;;16.70;63.53
31044;BME280;17710;52.520;13.352;2022-10-23T05:59:14;101375.59;;;16.54;64.22
31044;BME280;17710;52.520;13.352;2022-10-23T06:01:40;101379.69;;;16.61;63.96
31044;BME280;17710;52.520;13.352;2022-10-23T06:04:07;101377.72;;;16.47;64.38
31044;BME280;17710;52.520;13.352;2022-10-23T06:06:33;101370.09;;;16.57;64.14
31044;BME280;17710;52.520;13.352;2022-10-23T06:09:01;101364.69;;;16.58;64.47
31044;BME280;17710;52.520;13.352;2022-10-23T06:11:29;101366.84;;;16.69;64.02
31044;BME280;17710;52.520;13.352;2022-10-23T06:13:55;101364.75;;;16.40;64.81
31044;BME280;17710;52.520;13.352;2022-10-23T06:16:23;101371.22;;;16.70;64.37
31044;BME280;17710;52.520;13.352;2022-10-23T06:18:51;101372.75;;;16.40;65.22
31044;BME280;17710;52.520;13.352;2022-10-23T06:21:17;101364.56;;;16.61;64.47
31044;BME280;17710;52.520;13.352;2022-10-23T06:23:45;101363.00;;;16.92;63.80
31044;BME280;17710;52.520;13.352;2022-10-23T06:26:13;101368.56;;;16.87;63.48
31044;BME280;17710;52.520;13.352;2022-10-23T06:28:41;101361.03;;;16.78;63.67
31044;BME280;17710;52.520;13.352;2022-10-23T06:31:09;101367.22;;;16.96;63.21
31044;BME280;17710;52.520;13.352;2022-10-23T06:33:36;101356.44;;;17.14;62.46
31044;BME280;17710;52.520;13.352;2022-10-23T06:36:03;101359.75;;;17.02;62.92
31044;BME280;17710;52.520;13.352;2022-10-23T06:38:30;101362.09;;;16.57;64.10
31044;BME280;17710;52.520;13.352;2022-10-23T06:41:00;101357.69;;;16.56;63.91
31044;BME280;17710;52.520;13.352;2022-10-23T06:43:27;101366.63;;;17.24;62.56
31044;BME280;17710;52.520;13.352;2022-10-23T06:45:55;101361.97;;;17.11;62.61
31044;BME280;17710;52.520;13.352;2022-10-23T06:48:21;101375.63;;;17.05;62.77
31044;BME280;17710;52.520;13.352;2022-10-23T06:50:47;101375.53;;;17.07;62.50
31044;BME280;17710;52.520;13.352;2022-10-23T06:53:14;101375.69;;;17.04;63.03
31044;BME280;17710;52.520;13.352;2022-10-23T06:55:40;101382.78;;;17.05;63.44
31044;BME280;17710;52.520;13.352;2022-10-23T06:58:07;101380.47;;;17.32;62.55
31044;BME280;17710;52.520;13.352;2022-10-23T07:00:35;101392.22;;;17.28;62.85
31044;BME280;17710;52.520;13.352;2022-10-23T07:03:03;101386.22;;;17.40;62.40
31044;BME280;17710;52.520;13.352;2022-10-23T07:05:29;101386.16;;;17.41;62.20
31044;BME280;17710;52.520;13.352;2022-10-23T07:07:55;101381.34;;;17.48;62.40
31044;BME280;17710;52.520;13.352;2022-10-23T07:10:22;101373.00;;;17.21;62.94
31044;BME280;17710;52.520;13.352;2022-10-23T07:12:48;101380.31;;;17.18;63.20
31044;BME280;17710;52.520;13.352;2022-10-23T07:15:15;101378.81;;;17.29;63.17
31044;BME280;17710;52.520;13.352;2022-10-23T07:17:41;101383.13;;;17.32;63.55
31044;BME280;17710;52.520;13.352;2022-10-23T07:20:09;101382.06;;;17.51;62.88
31044;BME280;17710;52.520;13.352;2022-10-23T07:22:36;101385.50;;;17.53;62.83
31044;BME280;17710;52.520;13.352;2022-10-23T07:25:03;101386.00;;;17.60;62.66
31044;BME280;17710;52.520;13.352;2022-10-23T07:27:30;101378.47;;;17.35;63.38
31044;BME280;17710;52.520;13.352;2022-10-23T07:29:56;101380.56;;;17.46;63.26
31044;BME280;17710;52.520;13.352;2022-10-23T07:32:22;101384.78;;;17.67;62.64
31044;BME280;17710;52.520;13.352;2022-10-23T07:34:52;101384.19;;;17.78;62.34
31044;BME280;17710;52.520;13.352;2022-10-23T07:37:19;101381.16;;;17.68;62.56
31044;BME280;17710;52.520;13.352;2022-10-23T07:39:46;101377.56;;;18.01;61.81
31044;BME280;17710;52.520;13.352;2022-10-23T07:42:15;101379.97;;;17.89;61.86
31044;BME280;17710;52.520;13.352;2022-10-23T07:44:42;101380.91;;;17.88;61.57
31044;BME280;17710;52.520;13.352;2022-10-23T07:47:08;101379.97;;;17.89;61.57
31044;BME280;17710;52.520;13.352;2022-10-23T07:49:35;101380.97;;;18.34;60.62
31044;BME280;17710;52.520;13.352;2022-10-23T07:52:03;101381.09;;;18.17;60.60
31044;BME280;17710;52.520;13.352;2022-10-23T07:54:31;101376.41;;;18.36;60.21
31044;BME280;17710;52.520;13.352;2022-10-23T07:56:57;101385.47;;;18.49;60.01
31044;BME280;17710;52.520;13.352;2022-10-23T07:59:24;101379.69;;;18.25;60.41
31044;BME280;17710;52.520;13.352;2022-10-23T08:01:51;101371.97;;;18.66;59.78
31044;BME280;17710;52.520;13.352;2022-10-23T08:04:20;101365.63;;;18.83;58.99
31044;BME280;17710;52.520;13.352;2022-10-23T08:06:47;101368.69;;;18.61;59.90
31044;BME280;17710;52.520;13.352;2022-10-23T08:09:13;101366.06;;;18.76;59.60
31044;BME280;17710;52.520;13.352;2022-10-23T08:11:41;101363.97;;;18.81;59.13
31044;BME280;17710;52.520;13.352;2022-10-23T08:14:08;101369.19;;;18.68;60.11
31044;BME280;17710;52.520;13.352;2022-10-23T08:16:36;101369.50;;;18.78;59.25
31044;BME280;17710;52.520;13.352;2022-10-23T08:19:04;101363.25;;;18.93;59.26
31044;BME280;17710;52.520;13.352;2022-10-23T08:21:32;101359.81;;;19.05;58.76
31044;BME280;17710;52.520;13.352;2022-10-23T08:23:59;101358.16;;;18.88;58.72
31044;BME280;17710;52.520;13.352;2022-10-23T08:26:26;101357.50;;;18.99;59.07
31044;BME280;17710;52.520;13.352;2022-10-23T08:28:57;101367.19;;;19.44;57.80
31044;BME280;17710;52.520;13.352;2022-10-23T08:31:24;101378.78;;;19.30;58.02
31044;BME280;17710;52.520;13.352;2022-10-23T08:33:50;101374.75;;;19.37;57.81
31044;BME280;17710;52.520;13.352;2022-10-23T08:36:19;101365.50;;;19.29;58.31
31044;BME280;17710;52.520;13.352;2022-10-23T08:38:46;101366.75;;;19.66;57.20
31044;BME280;17710;52.520;13.352;2022-10-23T08:41:22;101359.97;;;19.60;57.29
31044;BME280;17710;52.520;13.352;2022-10-23T08:43:52;101365.41;;;19.59;56.98
31044;BME280;17710;52.520;13.352;2022-10-23T08:46:24;101365.41;;;19.59;57.02
31044;BME280;17710;52.520;13.352;2022-10-23T08:48:55;101366.25;;;19.87;56.79
31044;BME280;17710;52.520;13.352;2022-10-23T08:51:26;101356.47;;;20.27;55.06
31044;BME280;17710;52.520;13.352;2022-10-23T08:53:58;101368.09;;;19.73;56.02
31044;BME280;17710;52.520;13.352;2022-10-23T08:56:32;101364.25;;;19.63;56.81
31044;BME280;17710;52.520;13.352;2022-10-23T08:59:03;101364.03;;;19.94;56.00
31044;BME280;17710;52.520;13.352;2022-10-23T09:01:38;101357.06;;;20.18;55.43
31044;BME280;17710;52.520;13.352;2022-10-23T09:04:05;101360.19;;;19.98;55.17
31044;BME280;17710;52.520;13.352;2022-10-23T09:06:38;101358.31;;;20.13;55.52
31044;BME280;17710;52.520;13.352;2022-10-23T09:09:27;101358.41;;;20.11;55.31
31044;BME280;17710;52.520;13.352;2022-10-23T09:12:04;101358.50;;;20.51;54.62
31044;BME280;17710;52.520;13.352;2022-10-23T09:15:02;101360.47;;;20.08;55.25
31044;BME280;17710;52.520;13.352;2022-10-23T09:17:32;101365.00;;;20.20;55.26
31044;BME280;17710;52.520;13.352;2022-10-23T09:20:10;101359.66;;;20.47;54.42
31044;BME280;17710;52.520;13.352;2022-10-23T09:22:38;101354.25;;;20.34;54.76
31044;BME280;17710;52.520;13.352;2022-10-23T09:25:08;101343.06;;;20.54;54.69
31044;BME280;17710;52.520;13.352;2022-10-23T09:27:35;101341.38;;;20.79;53.75
31044;BME280;17710;52.520;13.352;2022-10-23T09:30:01;101336.78;;;21.06;52.99
31044;BME280;17710;52.520;13.352;2022-10-23T09:32:36;101336.66;;;21.07;52.98
31044;BME280;17710;52.520;13.352;2022-10-23T09:35:05;101343.41;;;20.88;53.37
31044;BME280;17710;52.520;13.352;2022-10-23T09:37:32;101343.03;;;21.32;52.60
31044;BME280;17710;52.520;13.352;2022-10-23T09:42:28;101350.09;;;21.58;51.71
31044;BME280;17710;52.520;13.352;2022-10-23T09:44:55;101346.97;;;21.64;51.76
31044;BME280;17710;52.520;13.352;2022-10-23T09:47:23;101346.91;;;21.90;51.20
31044;BME280;17710;52.520;13.352;2022-10-23T09:49:53;101352.38;;;22.01;50.69
31044;BME280;17710;52.520;13.352;2022-10-23T09:52:27;101338.22;;;21.73;50.44
31044;BME280;17710;52.520;13.352;2022-10-23T09:54:56;101335.53;;;21.73;50.52
31044;BME280;17710;52.520;13.352;2022-10-23T09:57:27;101339.81;;;21.88;50.02
31044;BME280;17710;52.520;13.352;2022-10-23T09:59:56;101347.75;;;22.03;50.07
31044;BME280;17710;52.520;13.352;2022-10-23T10:02:27;101333.38;;;21.78;50.49
31044;BME280;17710;52.520;13.352;2022-10-23T10:04:56;101334.25;;;21.79;50.62
31044;BME280;17710;52.520;13.352;2022-10-23T10:07:26;101337.88;;;21.91;50.31
31044;BME280;17710;52.520;13.352;2022-10-23T10:09:54;101331.97;;;21.85;50.20
31044;BME280;17710;52.520;13.352;2022-10-23T10:12:42;101328.22;;;21.75;50.11
31044;BME280;17710;52.520;13.352;2022-10-23T10:15:19;101328.16;;;22.01;49.77
31044;BME280;17710;52.520;13.352;2022-10-23T10:17:56;101322.16;;;22.21;49.07
31044;BME280;17710;52.520;13.352;2022-10-23T10:20:44;101330.16;;;22.34;49.30
31044;BME280;17710;52.520;13.352;2022-10-23T10:23:25;101321.16;;;22.46;48.61
31044;BME280;17710;52.520;13.352;2022-10-23T10:25:59;101314.88;;;22.69;48.35
31044;BME280;17710;52.520;13.352;2022-10-23T10:28:40;101309.97;;;22.63;48.04
31044;BME280;17710;52.520;13.352;2022-10-23T10:31:17;101305.69;;;22.72;47.47
31044;BME280;17710;52.520;13.352;2022-10-23T10:33:54;101291.69;;;22.44;47.53
31044;BME280;17710;52.520;13.352;2022-10-23T10:36:41;101307.59;;;22.47;47.22
31044;BME280;17710;52.520;13.352;2022-10-23T10:39:18;101303.31;;;22.45;47.76
31044;BME280;17710;52.520;13.352;2022-10-23T10:41:59;101302.38;;;22.57;47.55
31044;BME280;17710;52.520;13.352;2022-10-23T10:44:40;101301.47;;;22.21;48.18
31044;BME280;17710;52.520;13.352;2022-10-23T10:47:14;101294.88;;;22.25;48.39
31044;BME280;17710;52.520;13.352;2022-10-23T10:49:51;101295.88;;;22.01;49.21
31044;BME280;17710;52.520;13.352;2022-10-23T10:52:27;101289.28;;;22.29;48.91
31044;BME280;17710;52.520;13.352;2022-10-23T10:55:02;101292.44;;;22.22;48.85
31044;BME280;17710;52.520;13.352;2022-10-23T10:57:38;101289.69;;;22.35;48.86
31044;BME280;17710;52.520;13.352;2022-10-23T11:00:13;101292.16;;;22.38;49.14
31044;BME280;17710;52.520;13.352;2022-10-23T11:02:43;101288.19;;;22.31;49.43
31044;BME280;17710;52.520;13.352;2022-10-23T11:05:21;101274.50;;;22.34;49.44
31044;BME280;17710;52.520;13.352;2022-10-23T11:07:58;101272.13;;;22.64;49.36
31044;BME280;17710;52.520;13.352;2022-10-23T11:10:26;101265.84;;;22.77;49.00
31044;BME280;17710;52.520;13.352;2022-10-23T11:12:53;101269.50;;;22.87;49.07
31044;BME280;17710;52.520;13.352;2022-10-23T11:15:24;101261.19;;;23.01;48.56
31044;BME280;17710;52.520;13.352;2022-10-23T11:17:54;101259.47;;;22.89;48.51
31044;BME280;17710;52.520;13.352;2022-10-23T11:20:38;101253.59;;;23.28;48.07
31044;BME280;17710;52.520;13.352;2022-10-23T11:23:35;101255.06;;;23.55;47.41
31044;BME280;17710;52.520;13.352;2022-10-23T11:26:16;101249.66;;;23.43;47.77
31044;BME280;17710;52.520;13.352;2022-10-23T11:28:57;101243.81;;;23.16;47.54
31044;BME280;17710;52.520;13.352;2022-10-23T11:31:33;101242.56;;;22.98;47.90
31044;BME280;17710;52.520;13.352;2022-10-23T11:34:20;101237.28;;;22.85;48.18
31044;BME280;17710;52.520;13.352;2022-10-23T11:36:51;101227.25;;;22.98;48.28
31044;BME280;17710;52.520;13.352;2022-10-23T11:39:21;101227.63;;;23.16;47.92
31044;BME280;17710;52.520;13.352;2022-10-23T11:41:54;101226.66;;;22.95;47.38
31044;BME280;17710;52.520;13.352;2022-10-23T11:44:37;101227.81;;;22.69;48.41
31044;BME280;17710;52.520;13.352;2022-10-23T11:47:24;101213.53;;;23.01;47.39
31044;BME280;17710;52.520;13.352;2022-10-23T11:50:10;101212.69;;;22.90;47.95
31044;BME280;17710;52.520;13.352;2022-10-23T11:52:39;101210.38;;;22.96;47.92
31044;BME280;17710;52.520;13.352;2022-10-23T11:55:16;101198.19;;;22.69;48.86
31044;BME280;17710;52.520;13.352;2022-10-23T11:57:44;101194.28;;;22.73;48.89
31044;BME280;17710;52.520;13.352;2022-10-23T12:00:19;101196.50;;;22.79;48.71
31044;BME280;17710;52.520;13.352;2022-10-23T12:02:50;101193.09;;;22.77;48.85
31044;BME280;17710;52.520;13.352;2022-10-23T12:05:27;101190.13;;;22.91;48.34
31044;BME280;17710;52.520;13.352;2022-10-23T12:07:58;101186.56;;;23.13;47.95
31044;BME280;17710;52.520;13.352;2022-10-23T12:10:30;101194.53;;;23.25;47.50
31044;BME280;17710;52.520;13.352;2022-10-23T12:12:59;101192.81;;;23.35;47.84
31044;BME280;17710;52.520;13.352;2022-10-23T12:15:28;101183.28;;;23.09;47.85
31044;BME280;17710;52.520;13.352;2022-10-23T12:18:07;101186.69;;;23.22;47.66
31044;BME280;17710;52.520;13.352;2022-10-23T12:20:38;101182.03;;;23.35;47.37
31044;BME280;17710;52.520;13.352;2022-10-23T12:26:22;101166.19;;;23.42;47.21
31044;BME280;17710;52.520;13.352;2022-10-23T12:28:58;101167.13;;;23.63;47.05
31044;BME280;17710;52.520;13.352;2022-10-23T12:31:37;101162.75;;;23.83;46.36
31044;BME280;17710;52.520;13.352;2022-10-23T12:34:17;101162.84;;;23.61;46.49
31044;BME280;17710;52.520;13.352;2022-10-23T12:37:03;101153.22;;;23.36;46.96
31044;BME280;17710;52.520;13.352;2022-10-23T12:39:34;101161.00;;;23.61;46.88
31044;BME280;17710;52.520;13.352;2022-10-23T12:42:03;101158.44;;;23.60;46.83
31044;BME280;17710;52.520;13.352;2022-10-23T12:44:31;101159.03;;;23.63;46.56
31044;BME280;17710;52.520;13.352;2022-10-23T12:47:00;101150.78;;;23.76;46.28
31044;BME280;17710;52.520;13.352;2022-10-23T12:49:29;101151.38;;;23.48;46.87
31044;BME280;17710;52.520;13.352;2022-10-23T12:52:00;101146.47;;;23.41;46.58
31044;BME280;17710;52.520;13.352;2022-10-23T12:54:31;101142.44;;;23.25;46.90
31044;BME280;17710;52.520;13.352;2022-10-23T12:56:58;101136.69;;;23.18;47.18
31044;BME280;17710;52.520;13.352;2022-10-23T12:59:32;101123.91;;;23.31;47.13
31044;BME280;17710;52.520;13.352;2022-10-23T13:02:12;101121.06;;;23.55;46.83